Time;durP1;ratioP1;P1;durP2;ratioP2;P2;SDS_P1;SDS_P2;PMS_P1;PMS_P2;Temp;Humidity;BMP_temperature;BMP_pressure;BME280_temperature;BME280_humidity;BME280_pressure;Samples;Min_cycle;Max_cycle;Signal;HPM_P1;HPM_P2
2024/02/17 00:02:40;;;;;;;18.45;9.60;;;;;;;10.71;100.00;102296.19;5084733;28;20048;-68
2024/02/17 00:05:28;;;;;;;19.25;10.50;;;;;;;10.70;100.00;102308.13;5080037;28;20169;-68
2024/02/17 00:08:16;;;;;;;15.75;10.13;;;;;;;10.69;100.00;102310.03;5134784;27;20526;-68
2024/02/17 00:11:05;;;;;;;16.63;10.10;;;;;;;10.66;100.00;102311.31;5097452;28;20032;-68
2024/02/17 00:13:53;;;;;;;22.55;11.77;;;;;;;10.66;100.00;102314.06;5093013;28;20101;-68
2024/02/17 00:16:42;;;;;;;20.80;10.13;;;;;;;10.64;100.00;102321.63;5099387;28;20051;-68
2024/02/17 00:19:30;;;;;;;20.10;10.07;;;;;;;10.64;100.00;102313.44;5114423;28;20071;-68
2024/02/17 00:22:19;;;;;;;17.63;9.98;;;;;;;10.64;100.00;102324.34;5113506;27;20047;-68
2024/02/17 00:25:07;;;;;;;18.80;9.52;;;;;;;10.62;100.00;102326.47;5114136;28;20185;-67
2024/02/17 00:27:55;;;;;;;19.52;10.70;;;;;;;10.61;100.00;102338.44;5114019;28;20119;-68
2024/02/17 00:30:43;;;;;;;17.83;10.18;;;;;;;10.61;100.00;102335.72;5071647;28;20050;-67
2024/02/17 00:33:31;;;;;;;18.00;10.70;;;;;;;10.61;100.00;102338.44;5080715;28;20062;-68
2024/02/17 00:36:19;;;;;;;19.83;10.18;;;;;;;10.60;100.00;102328.59;5078618;28;20557;-67
2024/02/17 00:39:08;;;;;;;17.98;10.23;;;;;;;10.60;100.00;102333.22;5092919;28;20138;-68
2024/02/17 00:41:57;;;;;;;22.67;12.20;;;;;;;10.59;100.00;102343.28;5109562;27;20047;-68
2024/02/17 00:44:45;;;;;;;17.38;10.18;;;;;;;10.59;100.00;102343.28;5099685;28;20043;-67
2024/02/17 00:47:33;;;;;;;21.95;11.95;;;;;;;10.60;100.00;102341.41;5113919;28;20032;-68
2024/02/17 00:50:23;;;;;;;19.42;11.10;;;;;;;10.58;100.00;102347.09;5115346;28;20086;-67
2024/02/17 00:53:11;;;;;;;17.80;10.30;;;;;;;10.57;100.00;102350.88;5094135;28;20090;-67
2024/02/17 00:55:59;;;;;;;18.17;10.57;;;;;;;10.57;100.00;102353.59;5082160;28;20393;-68
2024/02/17 00:58:47;;;;;;;19.73;10.65;;;;;;;10.56;100.00;102349.22;5113809;28;20453;-67
2024/02/17 01:01:35;;;;;;;18.92;10.20;;;;;;;10.56;100.00;102349.22;5070425;28;20129;-67
2024/02/17 01:04:27;;;;;;;19.70;10.15;;;;;;;10.56;100.00;102360.13;5094152;28;20044;-67
2024/02/17 01:07:15;;;;;;;17.10;9.75;;;;;;;10.56;100.00;102356.53;5102704;28;20042;-67
2024/02/17 01:10:04;;;;;;;16.75;9.73;;;;;;;10.55;100.00;102358.44;5113952;27;20181;-68
2024/02/17 01:12:52;;;;;;;17.45;9.90;;;;;;;10.52;100.00;102358.91;5078811;28;20052;-67
2024/02/17 01:15:40;;;;;;;17.35;9.65;;;;;;;10.53;100.00;102360.56;5097264;28;20050;-68
2024/02/17 01:18:28;;;;;;;17.83;9.90;;;;;;;10.53;100.00;102366.00;5097969;28;20419;-67
2024/02/17 01:21:16;;;;;;;15.27;9.27;;;;;;;10.52;100.00;102367.09;5096979;28;20051;-67
2024/02/17 01:24:05;;;;;;;19.05;9.82;;;;;;;10.50;100.00;102366.47;5113106;28;20043;-67
2024/02/17 01:26:53;;;;;;;19.63;9.90;;;;;;;10.50;100.00;102366.47;5112702;28;20126;-69
2024/02/17 01:29:41;;;;;;;19.42;9.25;;;;;;;10.50;100.00;102371.09;5113495;28;20097;-68
2024/02/17 01:32:29;;;;;;;18.77;9.93;;;;;;;10.51;100.00;102378.19;5084583;28;20052;-68
2024/02/17 01:35:17;;;;;;;17.75;9.63;;;;;;;10.50;100.00;102382.00;5114113;28;20044;-69
2024/02/17 01:38:07;;;;;;;15.35;8.82;;;;;;;10.50;100.00;102380.09;5112723;28;20473;-68
2024/02/17 01:40:55;;;;;;;19.58;9.10;;;;;;;10.50;100.00;102380.09;5106585;27;20096;-68
2024/02/17 01:43:43;;;;;;;19.65;9.52;;;;;;;10.51;100.00;102389.97;5123722;27;20122;-68
2024/02/17 01:46:31;;;;;;;17.05;9.93;;;;;;;10.51;100.00;102392.69;5133076;27;20031;-68
2024/02/17 01:49:21;;;;;;;19.98;9.95;;;;;;;10.50;100.00;102387.44;5106609;28;20169;-67
2024/02/17 01:52:10;;;;;;;17.92;10.55;;;;;;;10.49;100.00;102388.53;5110715;28;20043;-67
2024/02/17 01:54:58;;;;;;;17.45;9.48;;;;;;;10.48;100.00;102390.41;5077864;28;20055;-68
2024/02/17 01:57:48;;;;;;;20.70;9.98;;;;;;;10.47;100.00;102394.19;5077510;28;20048;-68
2024/02/17 02:00:37;;;;;;;16.60;8.82;;;;;;;10.45;100.00;102397.13;5115453;27;20054;-68
2024/02/17 02:03:25;;;;;;;18.10;9.82;;;;;;;10.44;100.00;102400.94;5110995;27;20040;-68
2024/02/17 02:06:15;;;;;;;17.58;9.55;;;;;;;10.44;100.00;102406.38;5111426;28;20036;-68
2024/02/17 02:09:03;;;;;;;19.33;9.30;;;;;;;10.44;100.00;102409.09;5112114;28;20063;-68
2024/02/17 02:11:53;;;;;;;23.35;9.43;;;;;;;10.44;100.00;102400.09;5072883;28;20043;-68
2024/02/17 02:14:41;;;;;;;17.85;9.55;;;;;;;10.43;100.00;102415.59;5087542;28;20096;-68
2024/02/17 02:17:29;;;;;;;22.45;9.75;;;;;;;10.43;100.00;102420.22;5132029;27;20055;-68
2024/02/17 02:20:19;;;;;;;20.73;9.57;;;;;;;10.44;100.00;102427.34;5128225;27;20039;-68
2024/02/17 02:23:07;;;;;;;20.55;9.73;;;;;;;10.42;100.00;102432.19;5120901;28;20051;-67
2024/02/17 02:25:55;;;;;;;18.17;9.55;;;;;;;10.42;100.00;102429.47;5107070;28;20043;-68
2024/02/17 02:28:43;;;;;;;21.48;9.75;;;;;;;10.42;100.00;102429.47;5073514;28;20054;-67
2024/02/17 02:31:31;;;;;;;20.70;9.65;;;;;;;10.43;100.00;102437.41;5131584;28;20049;-63
2024/02/17 02:34:20;;;;;;;20.60;9.77;;;;;;;10.41;100.00;102433.25;5130720;28;20043;-65
2024/02/17 02:37:08;;;;;;;16.10;8.80;;;;;;;10.42;100.00;102443.09;5102940;28;20086;-67
2024/02/17 02:39:56;;;;;;;18.58;9.55;;;;;;;10.41;100.00;102441.41;5098203;28;20522;-67
2024/02/17 02:42:44;;;;;;;19.23;9.82;;;;;;;10.42;100.00;102451.28;5110452;27;20090;-68
2024/02/17 02:45:33;;;;;;;17.63;9.48;;;;;;;10.40;100.00;102453.38;5112694;28;20472;-67
2024/02/17 02:48:22;;;;;;;18.45;9.50;;;;;;;10.40;100.00;102456.09;5097037;28;20079;-68
2024/02/17 02:51:14;;;;;;;21.65;10.43;;;;;;;10.40;100.00;102456.09;5096233;28;20051;-67
2024/02/17 02:54:02;;;;;;;16.95;9.07;;;;;;;10.40;100.00;102454.22;5063936;28;20088;-67
2024/02/17 02:56:50;;;;;;;22.25;9.88;;;;;;;10.41;100.00;102463.22;5062907;28;20529;-68
2024/02/17 02:59:38;;;;;;;16.88;9.15;;;;;;;10.40;100.00;102465.13;5077021;28;20415;-68
2024/02/17 03:02:26;;;;;;;25.77;10.23;;;;;;;10.40;100.00;102469.75;5101201;28;20059;-68
2024/02/17 03:05:14;;;;;;;18.35;9.35;;;;;;;10.39;100.00;102463.47;5096520;28;20423;-68
2024/02/17 03:08:04;;;;;;;19.83;9.30;;;;;;;10.38;100.00;102466.41;5111299;28;20401;-68
2024/02/17 03:10:52;;;;;;;26.13;10.30;;;;;;;10.39;100.00;102462.59;5082914;28;20047;-68
2024/02/17 03:13:40;;;;;;;17.02;9.07;;;;;;;10.39;100.00;102479.81;5088363;28;20052;-67
2024/02/17 03:16:29;;;;;;;21.48;9.82;;;;;;;10.40;100.00;102481.47;5097006;28;20482;-67
2024/02/17 03:19:17;;;;;;;20.70;9.85;;;;;;;10.40;100.00;102484.19;5111747;28;20397;-68
2024/02/17 03:22:06;;;;;;;16.15;8.77;;;;;;;10.39;100.00;102484.41;5083279;28;20043;-68
2024/02/17 03:24:54;;;;;;;20.35;9.40;;;;;;;10.39;100.00;102487.13;5078583;28;20395;-67
2024/02/17 03:27:42;;;;;;;16.45;8.88;;;;;;;10.39;100.00;102500.75;5096866;28;20066;-68
2024/02/17 03:30:30;;;;;;;17.58;9.32;;;;;;;10.38;100.00;102496.38;5097365;28;20055;-68
2024/02/17 03:33:18;;;;;;;18.85;9.20;;;;;;;10.37;100.00;102495.53;5077577;28;20055;-68
2024/02/17 03:36:07;;;;;;;17.95;9.77;;;;;;;10.37;100.00;102502.88;5096587;28;20526;-68
2024/02/17 03:38:55;;;;;;;18.05;8.70;;;;;;;10.34;100.00;102509.63;5096112;28;20066;-68
2024/02/17 03:41:42;;;;;;;18.15;9.57;;;;;;;10.34;100.00;102504.19;5097008;28;20040;-68
2024/02/17 03:44:31;;;;;;;20.10;9.88;;;;;;;10.36;100.00;102510.22;5076595;28;20404;-68
2024/02/17 03:47:19;;;;;;;19.27;8.82;;;;;;;10.37;100.00;102513.78;5090664;28;20036;-69
2024/02/17 03:50:07;;;;;;;17.80;9.52;;;;;;;10.37;100.00;102521.97;5075878;28;20074;-68
2024/02/17 03:52:55;;;;;;;20.20;9.68;;;;;;;10.36;100.00;102520.28;5070823;28;20041;-68
2024/02/17 03:55:43;;;;;;;23.00;10.60;;;;;;;10.35;100.00;102529.53;5056102;28;20048;-68
2024/02/17 03:58:31;;;;;;;18.33;9.30;;;;;;;10.32;100.00;102528.09;5075958;28;20048;-68
2024/02/17 04:01:20;;;;;;;18.70;9.50;;;;;;;10.32;100.00;102538.13;5089796;28;20048;-68
2024/02/17 04:04:08;;;;;;;18.27;9.32;;;;;;;10.32;100.00;102540.84;5064017;28;20051;-68
2024/02/17 04:06:56;;;;;;;19.33;9.50;;;;;;;10.33;100.00;102528.91;5056732;28;20056;-64
2024/02/17 04:09:44;;;;;;;26.02;10.43;;;;;;;10.32;100.00;102532.69;5070552;28;20412;-68
2024/02/17 04:12:37;;;;;;;18.52;9.65;;;;;;;10.33;100.00;102539.81;5092009;28;20449;-68
2024/02/17 04:15:25;;;;;;;22.45;10.18;;;;;;;10.33;100.00;102545.25;5096173;27;20050;-68
2024/02/17 04:18:13;;;;;;;16.60;9.32;;;;;;;10.33;100.00;102545.25;5114320;28;20043;-68
2024/02/17 04:21:03;;;;;;;17.98;9.43;;;;;;;10.31;100.00;102545.47;5113636;28;20408;-67
2024/02/17 04:23:52;;;;;;;15.98;8.98;;;;;;;10.31;100.00;102553.66;5098997;28;20506;-68
2024/02/17 04:26:40;;;;;;;18.92;9.23;;;;;;;10.32;100.00;102554.47;5110186;27;20043;-68
2024/02/17 04:29:28;;;;;;;13.95;8.20;;;;;;;10.31;100.00;102563.72;5120166;27;20081;-68
2024/02/17 04:32:16;;;;;;;19.10;9.80;;;;;;;10.30;100.00;102564.78;5094585;28;20054;-68
2024/02/17 04:35:04;;;;;;;22.60;10.13;;;;;;;10.27;100.00;102573.34;5099350;28;20495;-68
2024/02/17 04:37:54;;;;;;;17.80;9.48;;;;;;;10.28;100.00;102573.16;5113070;27;20549;-68
2024/02/17 04:40:42;;;;;;;20.30;9.73;;;;;;;10.30;100.00;102578.41;5099425;28;20035;-68
2024/02/17 04:43:30;;;;;;;18.13;9.20;;;;;;;10.28;100.00;102580.47;5096797;28;20044;-67
2024/02/17 04:46:18;;;;;;;20.15;9.43;;;;;;;10.28;100.00;102585.94;5091167;28;20054;-67
2024/02/17 04:49:06;;;;;;;19.38;9.40;;;;;;;10.29;100.00;102587.63;5114682;28;20514;-68
2024/02/17 04:51:54;;;;;;;17.80;8.60;;;;;;;10.30;100.00;102592.03;5114734;28;20054;-67
2024/02/17 04:54:42;;;;;;;20.20;9.07;;;;;;;10.30;100.00;102592.03;5111793;28;20043;-68
2024/02/17 04:57:31;;;;;;;19.27;8.43;;;;;;;10.31;100.00;102599.13;5085674;27;20043;-68
2024/02/17 05:00:20;;;;;;;18.08;8.98;;;;;;;10.30;100.00;102606.47;5113747;28;20048;-68
2024/02/17 05:03:08;;;;;;;20.65;9.43;;;;;;;10.30;100.00;102600.22;5110859;28;20039;-67
2024/02/17 05:05:56;;;;;;;15.38;8.02;;;;;;;10.29;100.00;102604.78;5114518;28;20538;-68
2024/02/17 05:08:45;;;;;;;19.30;8.63;;;;;;;10.29;100.00;102610.25;5115147;27;20038;-68
2024/02/17 05:11:33;;;;;;;19.02;8.32;;;;;;;10.30;100.00;102619.28;5099861;27;20055;-68
2024/02/17 05:14:22;;;;;;;16.70;8.18;;;;;;;10.30;100.00;102617.38;5110233;28;20060;-67
2024/02/17 05:17:11;;;;;;;16.85;8.38;;;;;;;10.30;100.00;102624.72;5113200;28;20501;-68
2024/02/17 05:19:59;;;;;;;16.75;8.13;;;;;;;10.29;100.00;102632.03;5098311;27;20125;-67
2024/02/17 05:22:47;;;;;;;18.67;8.38;;;;;;;10.28;100.00;102634.97;5126985;27;20043;-68
2024/02/17 05:25:35;;;;;;;17.80;7.72;;;;;;;10.27;100.00;102638.72;5064850;28;20052;-68
2024/02/17 05:28:24;;;;;;;17.60;9.07;;;;;;;10.27;100.00;102641.47;5066258;28;20048;-68
2024/02/17 05:31:26;;;;;;;15.00;8.13;;;;;;;10.26;100.00;102648.81;5101806;27;20426;-67
2024/02/17 05:34:17;;;;;;;14.93;8.13;;;;;;;10.26;100.00;102647.97;5105260;27;20055;-68
2024/02/17 05:37:05;;;;;;;17.60;8.48;;;;;;;10.26;100.00;102656.16;5129679;27;20072;-69
2024/02/17 05:39:54;;;;;;;18.50;8.13;;;;;;;10.26;100.00;102669.78;5112002;27;20127;-69
2024/02/17 05:42:43;;;;;;;18.13;8.50;;;;;;;10.24;100.00;102668.09;5113587;28;20134;-68
2024/02/17 05:45:32;;;;;;;19.08;8.40;;;;;;;10.25;100.00;102663.50;5112725;28;20533;-67
2024/02/17 05:48:20;;;;;;;19.85;8.25;;;;;;;10.24;100.00;102676.25;5098040;28;20128;-67
2024/02/17 05:51:08;;;;;;;17.17;9.05;;;;;;;10.18;100.00;102673.59;5110190;27;20177;-66
2024/02/17 05:53:56;;;;;;;18.63;9.20;;;;;;;10.11;100.00;102684.53;5098181;28;20110;-67
2024/02/17 05:56:45;;;;;;;20.80;9.88;;;;;;;10.08;100.00;102682.25;5083946;28;20083;-67
2024/02/17 05:59:33;;;;;;;22.05;10.15;;;;;;;10.06;100.00;102680.81;5097850;28;20517;-67
2024/02/17 06:02:20;;;;;;;17.73;8.82;;;;;;;10.07;100.00;102687.91;5095982;27;20050;-68
2024/02/17 06:05:10;;;;;;;17.17;8.18;;;;;;;10.10;100.00;102691.03;5091928;28;20078;-69
2024/02/17 06:07:58;;;;;;;17.02;8.50;;;;;;;10.14;100.00;102691.44;5103031;28;20130;-68
2024/02/17 06:10:46;;;;;;;19.50;8.57;;;;;;;10.17;100.00;102696.44;5095983;28;20044;-68
2024/02/17 06:13:34;;;;;;;19.60;8.63;;;;;;;10.18;100.00;102696.22;5063185;28;20401;-69
2024/02/17 06:16:25;;;;;;;17.45;8.07;;;;;;;10.19;100.00;102703.31;5109142;28;20040;-69
2024/02/17 06:22:22;;;;;;;17.17;8.45;;;;;;;10.19;100.00;102708.78;5098516;28;20046;-69
2024/02/17 06:25:10;;;;;;;22.95;8.70;;;;;;;10.20;100.00;102705.03;5112759;28;20043;-69
2024/02/17 06:27:58;;;;;;;18.67;8.52;;;;;;;10.19;100.00;102703.31;5098370;28;20045;-69
2024/02/17 06:30:46;;;;;;;17.63;8.38;;;;;;;10.18;100.00;102707.13;5113209;28;20062;-68
2024/02/17 06:33:34;;;;;;;19.00;8.57;;;;;;;10.18;100.00;102712.56;5111189;27;20040;-68
2024/02/17 06:36:23;;;;;;;14.65;7.50;;;;;;;10.17;100.00;102724.53;5113247;28;20044;-67
2024/02/17 06:39:11;;;;;;;16.58;7.55;;;;;;;10.16;100.00;102731.00;5108730;28;20040;-67
2024/02/17 06:41:59;;;;;;;13.73;7.40;;;;;;;10.16;100.00;102733.75;5109522;28;20118;-68
2024/02/17 06:44:47;;;;;;;18.30;8.02;;;;;;;10.16;100.00;102741.91;5095312;28;20063;-68
2024/02/17 06:47:35;;;;;;;15.57;7.80;;;;;;;10.16;100.00;102747.34;5111564;28;20036;-68
2024/02/17 06:50:23;;;;;;;15.73;7.85;;;;;;;10.16;100.00;102744.63;5121301;28;20031;-65
2024/02/17 06:53:12;;;;;;;15.50;7.65;;;;;;;10.14;100.00;102752.19;5106351;28;20039;-66
2024/02/17 06:56:00;;;;;;;17.30;7.68;;;;;;;10.14;100.00;102754.91;5097916;28;20043;-69
2024/02/17 06:58:48;;;;;;;17.52;7.90;;;;;;;10.14;100.00;102749.47;5111771;28;20512;-68
2024/02/17 07:01:36;;;;;;;17.60;8.02;;;;;;;10.15;100.00;102750.28;5111600;28;20522;-68
2024/02/17 07:04:25;;;;;;;20.45;7.78;;;;;;;10.15;100.00;102756.59;5112021;28;20566;-69
2024/02/17 07:07:13;;;;;;;16.98;7.68;;;;;;;10.15;100.00;102767.50;5095280;28;20097;-68
2024/02/17 07:10:03;;;;;;;18.30;7.32;;;;;;;10.15;100.00;102778.38;5111041;28;20044;-67
2024/02/17 07:12:52;;;;;;;14.13;7.35;;;;;;;10.16;100.00;102785.50;5097371;28;20050;-68
2024/02/17 07:15:40;;;;;;;16.23;7.97;;;;;;;10.13;100.00;102783.22;5103227;28;20048;-69
2024/02/17 07:18:31;;;;;;;17.27;8.25;;;;;;;10.09;100.00;102779.25;5064072;28;20416;-67
2024/02/17 07:21:19;;;;;;;18.38;8.50;;;;;;;10.07;100.00;102770.44;5077068;28;20048;-67
2024/02/17 07:24:07;;;;;;;17.10;8.80;;;;;;;10.03;100.00;102780.94;5090807;28;20060;-67
2024/02/17 07:26:55;;;;;;;16.98;9.07;;;;;;;10.03;100.00;102789.13;5117434;28;20477;-68
2024/02/17 07:29:43;;;;;;;18.35;7.97;;;;;;;10.05;100.00;102794.34;5111453;28;20515;-67
2024/02/17 07:32:31;;;;;;;16.95;8.27;;;;;;;10.08;100.00;102807.53;5111816;28;20525;-67
2024/02/17 07:35:20;;;;;;;18.35;7.95;;;;;;;10.09;100.00;102817.38;5082985;28;20089;-68
2024/02/17 07:38:09;;;;;;;17.92;7.88;;;;;;;10.11;100.00;102826.16;5099398;28;20035;-68
2024/02/17 07:40:57;;;;;;;17.52;8.02;;;;;;;10.12;100.00;102830.56;5097066;28;20047;-69
2024/02/17 07:43:45;;;;;;;19.40;8.32;;;;;;;10.12;100.00;102827.81;5095576;28;20040;-67
2024/02/17 07:46:35;;;;;;;16.20;8.00;;;;;;;10.14;100.00;102839.34;5088261;28;20048;-67
2024/02/17 07:49:23;;;;;;;16.55;7.70;;;;;;;10.15;100.00;102837.47;4741352;28;10000493;-68
2024/02/17 07:52:12;;;;;;;16.75;6.85;;;;;;;10.17;100.00;102848.97;5086416;28;20043;-67
2024/02/17 07:55:00;;;;;;;15.23;6.88;;;;;;;10.15;100.00;102848.34;5109132;28;20047;-67
2024/02/17 07:57:48;;;;;;;16.25;7.47;;;;;;;10.17;100.00;102846.25;5075934;28;20046;-67
2024/02/17 08:00:38;;;;;;;18.67;7.60;;;;;;;10.16;100.00;102856.31;5078993;27;21263;-68
2024/02/17 08:03:29;;;;;;;14.82;7.68;;;;;;;10.18;100.00;102864.28;5091763;28;20135;-67
2024/02/17 08:06:21;;;;;;;15.60;7.75;;;;;;;10.18;100.00;102873.28;5098274;28;20044;-68
2024/02/17 08:09:10;;;;;;;16.67;7.40;;;;;;;10.20;100.00;102876.63;5086644;28;20043;-67
2024/02/17 08:11:58;;;;;;;19.33;8.98;;;;;;;10.20;100.00;102873.91;5082022;28;20051;-67
2024/02/17 08:14:46;;;;;;;17.95;6.85;;;;;;;10.20;100.00;102873.09;5077807;28;20127;-67
2024/02/17 08:17:34;;;;;;;15.90;7.28;;;;;;;10.19;100.00;102872.22;5079389;28;20044;-68
2024/02/17 08:20:23;;;;;;;16.60;6.28;;;;;;;10.21;100.00;102878.31;5084287;28;20062;-67
2024/02/17 08:23:11;;;;;;;15.73;6.68;;;;;;;10.22;100.00;102893.63;5079537;28;20053;-68
2024/02/17 08:26:00;;;;;;;18.20;7.18;;;;;;;10.21;100.00;102891.94;5101240;27;20544;-67
2024/02/17 08:28:52;;;;;;;13.25;6.50;;;;;;;10.20;100.00;102901.16;5101380;28;20078;-68
2024/02/17 08:31:40;;;;;;;21.17;8.43;;;;;;;10.19;100.00;102904.91;5107531;28;20130;-68
2024/02/17 08:34:28;;;;;;;20.02;6.85;;;;;;;10.19;100.00;102904.91;5078764;28;20485;-68
2024/02/17 08:37:16;;;;;;;16.60;6.80;;;;;;;10.18;100.00;102908.72;5100055;28;20043;-66
2024/02/17 08:40:05;;;;;;;14.75;7.03;;;;;;;10.18;100.00;102913.31;5094008;27;20067;-67
2024/02/17 08:42:53;;;;;;;16.75;7.45;;;;;;;10.19;100.00;102913.09;5087876;28;20066;-67
2024/02/17 08:45:41;;;;;;;19.45;7.05;;;;;;;10.21;100.00;102913.72;5091211;28;20048;-67
2024/02/17 08:48:29;;;;;;;21.92;7.55;;;;;;;10.21;100.00;102918.34;5070587;28;20146;-68
2024/02/17 08:51:17;;;;;;;17.75;7.32;;;;;;;10.23;100.00;102924.41;5082290;28;20055;-68
2024/02/17 08:54:06;;;;;;;14.40;6.32;;;;;;;10.24;100.00;102924.19;5093522;28;20381;-68
2024/02/17 08:56:54;;;;;;;18.10;6.22;;;;;;;10.27;100.00;102930.25;5080593;28;20038;-67
2024/02/17 08:59:42;;;;;;;17.23;7.05;;;;;;;10.24;100.00;102935.06;5079540;28;20567;-67
2024/02/17 09:02:30;;;;;;;14.45;6.13;;;;;;;10.25;100.00;102930.50;5078916;28;20047;-67
2024/02/17 09:05:18;;;;;;;15.65;6.60;;;;;;;10.26;100.00;102936.75;5051246;28;20122;-67
2024/02/17 09:08:06;;;;;;;17.80;6.82;;;;;;;10.28;100.00;102945.56;5079281;28;20076;-68
2024/02/17 09:10:54;;;;;;;15.95;7.00;;;;;;;10.29;100.00;102948.09;5086206;28;20268;-68
2024/02/17 09:13:43;;;;;;;17.73;6.88;;;;;;;10.30;100.00;102943.50;5098566;28;20090;-67
2024/02/17 09:16:31;;;;;;;18.35;6.97;;;;;;;10.31;100.00;102950.63;5098202;28;20039;-68
2024/02/17 09:19:19;;;;;;;17.85;7.20;;;;;;;10.35;100.00;102951.88;5111738;28;20054;-67
2024/02/17 09:22:08;;;;;;;17.08;7.88;;;;;;;10.37;100.00;102955.22;5109039;28;20571;-67
2024/02/17 09:24:56;;;;;;;14.25;6.85;;;;;;;10.39;100.00;102953.97;5093778;28;20040;-67
2024/02/17 09:27:44;;;;;;;14.10;6.10;;;;;;;10.40;100.00;102960.25;5110086;28;20039;-67
2024/02/17 09:30:34;;;;;;;18.00;7.10;;;;;;;10.42;100.00;102963.59;5065191;28;20052;-68
2024/02/17 09:33:28;;;;;;;17.75;6.97;;;;;;;10.43;100.00;102971.53;5092119;28;20051;-67
2024/02/17 09:36:18;;;;;;;17.27;7.15;;;;;;;10.45;100.00;102974.06;5112983;28;20044;-67
2024/02/17 09:39:06;;;;;;;17.67;7.03;;;;;;;10.46;100.00;102975.72;5097768;28;20059;-68
2024/02/17 09:41:54;;;;;;;18.83;6.97;;;;;;;10.45;100.00;102979.50;5097548;27;20051;-67
2024/02/17 09:44:43;;;;;;;17.33;6.75;;;;;;;10.46;100.00;102986.63;5081509;28;20047;-66
2024/02/17 09:47:34;;;;;;;15.60;6.85;;;;;;;10.46;100.00;102981.16;5086188;28;20052;-67
2024/02/17 09:50:22;;;;;;;18.55;7.35;;;;;;;10.49;100.00;102985.38;5083594;28;20044;-68
2024/02/17 09:53:10;;;;;;;17.38;7.20;;;;;;;10.49;100.00;102991.66;5123427;27;20041;-67
2024/02/17 09:56:02;;;;;;;19.08;7.10;;;;;;;10.50;100.00;102981.59;5118367;27;20491;-67
2024/02/17 09:58:50;;;;;;;19.92;8.05;;;;;;;10.52;100.00;102990.41;5090523;27;20130;-68
2024/02/17 10:01:38;;;;;;;18.02;7.90;;;;;;;10.52;100.00;102991.22;5113603;27;20047;-68
2024/02/17 10:04:26;;;;;;;16.40;7.05;;;;;;;10.51;100.00;102986.84;5109663;28;20093;-67
2024/02/17 10:07:14;;;;;;;18.63;7.47;;;;;;;10.50;100.00;102987.88;5083319;28;20054;-68
2024/02/17 10:10:04;;;;;;;19.85;8.50;;;;;;;10.53;100.00;102998.34;5098406;28;20051;-69
2024/02/17 10:12:54;;;;;;;19.52;7.15;;;;;;;10.55;100.00;102990.78;5111791;28;20043;-68
2024/02/17 10:15:43;;;;;;;15.02;7.25;;;;;;;10.56;100.00;102991.63;5114428;27;20051;-68
2024/02/17 10:18:31;;;;;;;14.48;6.15;;;;;;;10.55;100.00;102998.97;5098266;28;20054;-67
2024/02/17 10:21:23;;;;;;;14.68;6.18;;;;;;;10.58;100.00;102990.38;5097406;28;20049;-68
2024/02/17 10:24:11;;;;;;;16.50;6.63;;;;;;;10.64;100.00;102996.84;5083292;28;20056;-68
2024/02/17 10:27:00;;;;;;;14.82;7.15;;;;;;;10.63;100.00;102985.13;5115796;27;20051;-68
2024/02/17 10:29:48;;;;;;;13.52;6.88;;;;;;;10.64;100.00;102994.13;5116974;27;20043;-66
2024/02/17 10:32:36;;;;;;;19.85;7.65;;;;;;;10.64;100.00;102994.13;5118084;27;20047;-67
2024/02/17 10:35:25;;;;;;;14.63;6.47;;;;;;;10.66;100.00;102992.84;5089171;28;20101;-67
2024/02/17 10:38:13;;;;;;;18.05;6.20;;;;;;;10.71;100.00;102994.94;5097525;28;20048;-67
2024/02/17 10:41:01;;;;;;;17.20;6.30;;;;;;;10.76;100.00;102999.75;5114584;27;20191;-67
2024/02/17 10:43:50;;;;;;;17.48;6.80;;;;;;;10.76;100.00;103006.03;5132403;27;20407;-68
2024/02/17 10:46:39;;;;;;;17.33;7.60;;;;;;;10.77;100.00;103010.41;5117373;27;20039;-68
2024/02/17 10:49:28;;;;;;;16.83;7.22;;;;;;;10.78;100.00;103011.28;5117219;27;20043;-68
2024/02/17 10:52:17;;;;;;;15.57;7.25;;;;;;;10.77;100.00;103017.78;5098812;28;20040;-66
2024/02/17 10:55:07;;;;;;;14.93;7.00;;;;;;;10.78;100.00;103022.19;5110063;28;20040;-66
2024/02/17 10:57:55;;;;;;;13.98;7.30;;;;;;;10.80;100.00;103020.91;5098017;28;20103;-66
2024/02/17 11:00:47;;;;;;;11.88;6.30;;;;;;;10.83;100.00;103022.38;5117085;28;20153;-66
2024/02/17 11:03:37;;;;;;;16.23;7.10;;;;;;;10.83;100.00;103031.38;5114565;28;20120;-66
2024/02/17 11:06:26;;;;;;;16.63;7.65;;;;;;;10.84;100.00;103034.94;5111350;28;20379;-66
2024/02/17 11:09:14;;;;;;;17.05;7.05;;;;;;;10.84;100.00;103043.97;5125790;28;20071;-67
2024/02/17 11:12:34;;;;;;;15.35;7.25;;;;;;;10.82;100.00;103040.63;5096139;28;20071;-66
2024/02/17 11:15:23;;;;;;;18.50;8.10;;;;;;;10.79;100.00;103051.13;5098517;28;20132;-67
2024/02/17 11:18:12;;;;;;;19.42;8.00;;;;;;;10.75;100.00;103058.91;5078076;28;20516;-68
2024/02/17 11:21:03;;;;;;;23.52;8.93;;;;;;;10.76;100.00;103062.47;5091869;28;20044;-68
2024/02/17 11:23:52;;;;;;;19.67;8.52;;;;;;;10.78;100.00;103063.94;5077350;28;20097;-68
2024/02/17 11:26:41;;;;;;;17.50;8.30;;;;;;;10.79;100.00;103062.03;5095755;28;20134;-68
2024/02/17 11:29:34;;;;;;;17.35;8.45;;;;;;;10.77;100.00;103059.50;5071934;28;20173;-68
2024/02/17 11:32:22;;;;;;;16.48;7.75;;;;;;;10.76;100.00;103063.28;5102822;28;20124;-67
2024/02/17 11:35:11;;;;;;;19.80;8.63;;;;;;;10.80;100.00;103069.16;5080775;28;20075;-66
2024/02/17 11:38:00;;;;;;;19.50;7.28;;;;;;;10.85;100.00;103072.09;5073463;28;20036;-65
2024/02/17 11:40:50;;;;;;;16.52;7.85;;;;;;;10.93;100.00;103069.13;5100618;28;20042;-66
2024/02/17 11:43:38;;;;;;;20.95;7.57;;;;;;;10.98;100.00;103063.03;5095853;28;20415;-67
2024/02/17 11:46:26;;;;;;;17.85;7.32;;;;;;;11.00;100.00;103069.09;5113406;28;20244;-68
2024/02/17 11:49:14;;;;;;;17.58;7.90;;;;;;;10.99;100.00;103071.00;5086032;28;20122;-67
2024/02/17 11:52:03;;;;;;;19.83;8.02;;;;;;;11.01;100.00;103076.22;5062385;28;20043;-69
2024/02/17 11:54:51;;;;;;;19.92;9.02;;;;;;;11.04;100.00;103073.91;5096820;28;20048;-69
2024/02/17 11:57:40;;;;;;;17.00;8.07;;;;;;;11.08;100.00;103077.88;5092399;28;20043;-69
2024/02/17 12:00:28;;;;;;;20.27;8.45;;;;;;;11.07;100.00;103076.19;5074581;27;20206;-69
2024/02/17 12:03:16;;;;;;;17.50;8.82;;;;;;;11.08;100.00;103071.56;5120887;27;20058;-69
2024/02/17 12:06:06;;;;;;;17.13;8.10;;;;;;;11.12;100.00;103082.91;5115725;28;20044;-68
2024/02/17 12:08:54;;;;;;;14.77;6.88;;;;;;;11.14;100.00;103080.81;5109011;28;20113;-68
2024/02/17 12:11:43;;;;;;;25.65;14.90;;;;;;;11.18;100.00;103087.47;5106857;28;20157;-69
2024/02/17 12:14:31;;;;;;;17.33;8.60;;;;;;;11.19;100.00;103089.19;4406005;27;10000811;-69
2024/02/17 12:17:21;;;;;;;15.23;7.95;;;;;;;11.21;100.00;103087.06;5129606;27;20043;-69
2024/02/17 12:20:13;;;;;;;21.00;8.82;;;;;;;11.20;100.00;103093.56;5090501;28;20059;-68
2024/02/17 12:23:02;;;;;;;16.63;7.22;;;;;;;11.20;100.00;103090.84;5076482;28;20055;-69
2024/02/17 12:25:52;;;;;;;20.27;8.00;;;;;;;11.21;100.00;103077.00;5065005;27;20312;-68
2024/02/17 12:28:41;;;;;;;19.63;9.50;;;;;;;11.24;100.00;103084.72;5095238;28;20044;-69
2024/02/17 12:31:31;;;;;;;19.45;10.02;;;;;;;11.28;100.00;103087.84;5111116;28;20111;-68
2024/02/17 12:34:31;;;;;;;16.55;8.25;;;;;;;11.30;100.00;103097.53;5096709;28;20048;-68
2024/02/17 12:37:20;;;;;;;15.35;8.25;;;;;;;11.30;100.00;103091.22;5081666;28;20053;-68
2024/02/17 12:40:13;;;;;;;20.55;8.82;;;;;;;11.30;100.00;103093.94;5096426;28;20131;-68
2024/02/17 12:43:01;;;;;;;18.13;8.48;;;;;;;11.30;100.00;103097.53;5110518;28;20630;-68
2024/02/17 12:45:49;;;;;;;17.33;9.25;;;;;;;11.29;100.00;103090.38;5082231;28;20047;-69
2024/02/17 12:48:37;;;;;;;17.63;9.15;;;;;;;11.29;100.00;103098.56;5095507;28;20071;-68
2024/02/17 12:51:28;;;;;;;23.35;9.85;;;;;;;11.29;100.00;103097.72;5109837;27;20077;-67